createdAt,value
2023-02-04T00:00:08.227Z,99582.13
2023-02-04T00:02:10.325Z,99583.78
2023-02-04T00:04:14.726Z,99580.81
2023-02-04T00:06:16.352Z,99588.41
2023-02-04T00:08:20.545Z,99589.25
2023-02-04T00:10:22.213Z,99592.56
2023-02-04T00:12:23.927Z,99596.59
2023-02-04T00:14:25.464Z,99586.53
2023-02-04T00:16:27.075Z,99591.50
2023-02-04T00:18:29.343Z,99600.31
2023-02-04T00:20:31.438Z,99601.34
2023-02-04T00:22:33.211Z,99606.81
2023-02-04T00:24:35.893Z,99611.41
2023-02-04T00:26:37.539Z,99614.38
2023-02-04T00:28:39.002Z,99605.13
2023-02-04T00:30:40.535Z,99613.31
2023-02-04T00:32:43.920Z,99613.31
2023-02-04T00:34:46.936Z,99609.13
2023-02-04T00:36:51.615Z,99624.91
2023-02-04T00:38:53.200Z,99627.41
2023-02-04T00:40:54.849Z,99629.06
2023-02-04T00:43:02.180Z,99638.94
2023-02-04T00:45:03.881Z,99637.84
2023-02-04T00:47:06.149Z,99638.31
2023-02-04T00:49:10.556Z,99643.78
2023-02-04T00:51:12.227Z,99632.03
2023-02-04T00:53:13.866Z,99636.63
2023-02-04T00:55:18.086Z,99640.22
2023-02-04T00:57:19.833Z,99642.34
2023-02-04T00:59:24.533Z,99651.56
2023-02-04T01:01:26.299Z,99648.22
2023-02-04T01:03:28.007Z,99644.91
2023-02-04T01:05:30.612Z,99652.84
2023-02-04T01:07:32.369Z,99653.06
2023-02-04T01:09:34.009Z,99651.84
2023-02-04T01:11:36.604Z,99656.25
2023-02-04T01:13:38.606Z,99667.59
2023-02-04T01:15:40.369Z,99667.34
2023-02-04T01:17:42.319Z,99660.25
2023-02-04T01:19:43.942Z,99656.09
2023-02-04T01:21:45.469Z,99659.41
2023-02-04T01:23:47.278Z,99659.00
2023-02-04T01:25:49.891Z,99659.00
2023-02-04T01:27:51.741Z,99668.25
2023-02-04T01:29:53.432Z,99661.13
2023-02-04T01:31:54.877Z,99663.00
2023-02-04T01:33:56.434Z,99675.00
2023-02-04T01:36:00.371Z,99672.47
2023-02-04T01:38:02.136Z,99669.16
2023-02-04T01:40:04.460Z,99662.84
2023-02-04T01:42:06.435Z,99667.69
2023-02-04T01:44:08.281Z,99670.88
2023-02-04T01:46:10.609Z,99670.25
2023-02-04T01:48:16.558Z,99671.94
2023-02-04T01:50:18.659Z,99670.25
2023-02-04T01:52:20.273Z,99666.91
2023-02-04T01:54:22.206Z,99669.84
2023-02-04T01:56:26.873Z,99670.94
2023-02-04T01:58:35.562Z,99681.81
2023-02-04T02:00:39.037Z,99682.88
2023-02-04T02:02:49.021Z,99687.47
2023-02-04T02:04:50.491Z,99683.09
2023-02-04T02:06:55.445Z,99677.41
2023-02-04T02:08:58.431Z,99684.56
2023-02-04T02:11:00.058Z,99677.22
2023-02-04T02:13:01.956Z,99671.97
2023-02-04T02:15:05.450Z,99678.50
2023-02-04T02:17:07.126Z,99687.31
2023-02-04T02:19:14.930Z,99693.84
2023-02-04T02:21:21.826Z,99697.84
2023-02-04T02:24:01.064Z,99702.03
2023-02-04T02:26:02.647Z,99705.59
2023-02-04T02:28:09.204Z,99706.44
2023-02-04T02:30:19.898Z,99705.41
2023-02-04T02:32:24.469Z,99710.63
2023-02-04T02:34:29.452Z,99705.78
2023-02-04T02:36:33.552Z,99714.19
2023-02-04T02:38:35.207Z,99712.09
2023-02-04T02:40:37.661Z,99719.03
2023-02-04T02:42:39.671Z,99719.03
2023-02-04T02:44:44.469Z,99712.94
2023-02-04T02:46:48.860Z,99723.81
2023-02-04T02:48:50.584Z,99725.50
2023-02-04T02:50:52.722Z,99729.47
2023-02-04T02:52:57.009Z,99735.34
2023-02-04T02:54:58.766Z,99745.66
2023-02-04T02:57:00.542Z,99732.25
2023-02-04T02:59:16.937Z,99740.00
2023-02-04T03:01:19.377Z,99745.22
2023-02-04T03:03:25.714Z,99742.50
2023-02-04T03:05:34.046Z,99747.56
2023-02-04T03:07:37.446Z,99751.94
2023-02-04T03:09:39.115Z,99750.72
2023-02-04T03:11:40.927Z,99764.34
2023-02-04T03:13:43.030Z,99757.84
2023-02-04T03:15:47.724Z,99767.91
2023-02-04T03:17:51.512Z,99770.03
2023-02-04T03:19:55.790Z,99774.63
2023-02-04T03:22:00.932Z,99780.28
2023-02-04T03:24:02.695Z,99776.94
2023-02-04T03:26:06.494Z,99788.44
2023-02-04T03:28:09.832Z,99791.41
2023-02-04T03:30:11.715Z,99780.72
2023-02-04T03:32:13.282Z,99795.63
2023-02-04T03:34:14.914Z,99791.81
2023-02-04T03:36:16.645Z,99792.66
2023-02-04T03:38:19.908Z,99799.16
2023-02-04T03:40:21.608Z,99802.72
2023-02-04T03:42:23.186Z,99811.97
2023-02-04T03:44:27.030Z,99814.69
2023-02-04T03:46:28.907Z,99817.19
2023-02-04T03:48:30.599Z,99820.31
2023-02-04T03:50:32.545Z,99830.19
2023-02-04T03:52:34.315Z,99828.91
2023-02-04T03:54:38.547Z,99828.31
2023-02-04T03:56:40.115Z,99827.47
2023-02-04T03:58:41.628Z,99824.97
2023-02-04T04:00:43.571Z,99826.00
2023-02-04T04:02:45.341Z,99828.53
2023-02-04T04:04:49.358Z,99828.31
2023-02-04T04:06:51.049Z,99833.13
2023-02-04T04:08:52.516Z,99843.19
2023-02-04T04:10:54.178Z,99846.13
2023-02-04T04:12:55.964Z,99853.47
2023-02-04T04:14:57.603Z,99849.91
2023-02-04T04:17:00.835Z,99852.00
2023-02-04T04:19:02.342Z,99865.84
2023-02-04T04:21:03.916Z,99865.00
2023-02-04T04:23:05.391Z,99865.41
2023-02-04T04:25:07.805Z,99865.66
2023-02-04T04:27:12.293Z,99866.91
2023-02-04T04:29:13.858Z,99872.34
2023-02-04T04:31:15.636Z,99878.22
2023-02-04T04:33:17.226Z,99888.25
2023-02-04T04:35:18.890Z,99889.53
2023-02-04T04:37:20.466Z,99899.78
2023-02-04T04:39:24.245Z,99895.81
2023-02-04T04:41:28.509Z,99905.44
2023-02-04T04:43:30.110Z,99897.50
2023-02-04T04:45:31.694Z,99900.00
2023-02-04T04:47:33.186Z,99912.78
2023-02-04T04:49:34.698Z,99919.88
2023-02-04T04:51:36.689Z,99927.00
2023-02-04T04:53:38.172Z,99925.13
2023-02-04T04:55:40.538Z,99931.63
2023-02-04T04:57:42.064Z,99934.34
2023-02-04T04:59:43.593Z,99934.97
2023-02-04T05:01:45.151Z,99933.91
2023-02-04T05:03:46.670Z,99944.19
2023-02-04T05:05:48.427Z,99954.03
2023-02-04T05:07:50.087Z,99953.63
2023-02-04T05:09:51.681Z,99956.34
2023-02-04T05:11:53.282Z,99963.66
2023-02-04T05:13:56.107Z,99970.38
2023-02-04T05:15:58.167Z,99969.09
2023-02-04T05:18:00.132Z,99978.31
2023-02-04T05:20:03.683Z,99974.75
2023-02-04T05:22:05.192Z,99979.78
2023-02-04T05:24:06.700Z,99978.94
2023-02-04T05:26:13.636Z,99984.16
2023-02-04T05:28:16.891Z,99986.69
2023-02-04T05:30:18.739Z,99992.13
2023-02-04T05:32:20.411Z,99986.69
2023-02-04T05:34:22.037Z,99987.94
2023-02-04T05:36:23.669Z,99988.56
2023-02-04T05:38:25.117Z,99991.50
2023-02-04T05:40:29.662Z,99984.38
2023-02-04T05:42:31.427Z,99994.25
2023-02-04T05:44:33.075Z,100000.94
2023-02-04T05:46:41.237Z,100009.09
2023-02-04T05:48:42.713Z,100015.78
2023-02-04T05:50:44.475Z,100006.97
2023-02-04T05:52:46.259Z,100011.59
2023-02-04T05:54:47.995Z,100022.69
2023-02-04T05:56:52.177Z,100021.84
2023-02-04T05:58:54.973Z,100027.50
2023-02-04T06:00:56.623Z,100036.91
2023-02-04T06:02:58.208Z,100048.84
2023-02-04T06:05:00.264Z,100048.22
2023-02-04T06:07:03.356Z,100052.81
2023-02-04T06:09:04.921Z,100068.50
2023-02-04T06:11:06.818Z,100071.63
2023-02-04T06:13:08.445Z,100076.25
2023-02-04T06:15:10.820Z,100100.94
2023-02-04T06:17:15.313Z,100107.00
2023-02-04T06:19:16.792Z,100113.06
2023-02-04T06:21:18.768Z,100123.50
2023-02-04T06:23:20.292Z,100125.38
2023-02-04T06:25:23.168Z,100126.44
2023-02-04T06:29:40.289Z,100137.31
2023-02-04T06:31:42.037Z,100135.38
2023-02-04T06:33:43.785Z,100132.88
2023-02-04T06:35:45.395Z,100133.91
2023-02-04T06:37:47.410Z,100138.50
2023-02-04T06:39:55.341Z,100139.34
2023-02-04T06:42:00.685Z,100145.00
2023-02-04T06:44:02.154Z,100139.75
2023-02-04T06:46:05.398Z,100158.16
2023-02-04T06:48:07.177Z,100161.09
2023-02-04T06:50:10.946Z,100160.19
2023-02-04T06:52:12.628Z,100166.06
2023-02-04T06:54:14.178Z,100170.44
2023-02-04T06:56:15.865Z,100162.50
2023-02-04T06:58:20.742Z,100165.22
2023-02-04T07:00:22.796Z,100169.16
2023-02-04T07:02:26.559Z,100160.56
2023-02-04T07:04:28.075Z,100170.59
2023-02-04T07:06:29.725Z,100171.00
2023-02-04T07:08:31.497Z,100182.91
2023-02-04T07:10:35.694Z,100182.28
2023-02-04T07:12:37.374Z,100184.38
2023-02-04T07:14:39.159Z,100183.69
2023-02-04T07:16:40.755Z,100191.22
2023-02-04T07:18:42.309Z,100195.81
2023-02-04T07:20:44.121Z,100193.50
2023-02-04T07:22:45.775Z,100199.34
2023-02-04T07:24:47.565Z,100203.28
2023-02-04T07:26:52.198Z,100209.13
2023-02-04T07:28:53.826Z,100210.16
2023-02-04T07:30:55.680Z,100220.38
2023-02-04T07:32:57.330Z,100221.81
2023-02-04T07:35:00.031Z,100224.09
2023-02-04T07:37:01.974Z,100233.47
2023-02-04T07:39:04.276Z,100245.56
2023-02-04T07:41:05.868Z,100246.81
2023-02-04T07:43:07.818Z,100253.94
2023-02-04T07:45:19.145Z,100255.78
2023-02-04T07:47:23.532Z,100247.84
2023-02-04T07:49:25.004Z,100252.22
2023-02-04T07:51:27.929Z,100248.50
2023-02-04T07:53:29.791Z,100241.38
2023-02-04T07:55:31.503Z,100251.22
2023-02-04T07:57:33.386Z,100257.28
2023-02-04T07:59:34.913Z,100261.88
2023-02-04T08:01:36.591Z,100271.50
2023-02-04T08:03:39.912Z,100273.19
2023-02-04T08:05:42.501Z,100286.59
2023-02-04T08:07:44.348Z,100296.44
2023-02-04T08:09:48.973Z,100303.34
2023-02-04T08:11:50.509Z,100297.91
2023-02-04T08:13:52.246Z,100301.28
2023-02-04T08:15:53.948Z,100303.59
2023-02-04T08:17:55.554Z,100301.31
2023-02-04T08:19:57.210Z,100307.84
2023-02-04T08:21:58.895Z,100307.47
2023-02-04T08:24:00.517Z,100314.19
2023-02-04T08:26:02.219Z,100313.41
2023-02-04T08:28:04.887Z,100316.59
2023-02-04T08:30:10.334Z,100317.22
2023-02-04T08:32:13.344Z,100321.06
2023-02-04T08:34:16.153Z,100328.78
2023-02-04T08:36:20.016Z,100327.38
2023-02-04T08:38:21.774Z,100334.31
2023-02-04T08:40:23.639Z,100333.06
2023-02-04T08:42:25.560Z,100340.00
2023-02-04T08:44:27.291Z,100349.00
2023-02-04T08:46:29.036Z,100352.34
2023-02-04T08:48:33.323Z,100347.75
2023-02-04T08:50:36.233Z,100350.28
2023-02-04T08:52:38.983Z,100352.59
2023-02-04T08:54:40.434Z,100363.28
2023-02-04T08:56:42.229Z,100360.38
2023-02-04T08:58:47.530Z,100367.47
2023-02-04T09:00:49.193Z,100368.97
2023-02-04T09:02:51.878Z,100370.88
2023-02-04T09:04:53.340Z,100377.34
2023-02-04T09:07:03.256Z,100371.50
2023-02-04T09:09:04.905Z,100378.44
2023-02-04T09:11:07.726Z,100376.34
2023-02-04T09:13:11.694Z,100384.31
2023-02-04T09:15:16.814Z,100385.78
2023-02-04T09:17:19.200Z,100391.06
2023-02-04T09:19:25.997Z,100391.91
2023-02-04T09:21:28.196Z,100395.25
2023-02-04T09:23:30.197Z,100395.91
2023-02-04T09:25:32.458Z,100400.31
2023-02-04T09:27:34.037Z,100399.06
2023-02-04T09:29:35.543Z,100406.41
2023-02-04T09:31:37.272Z,100407.03
2023-02-04T09:33:39.187Z,100409.75
2023-02-04T09:35:40.933Z,100410.78
2023-02-04T09:37:42.581Z,100428.81
2023-02-04T09:39:44.468Z,100425.88
2023-02-04T09:41:46.203Z,100430.28
2023-02-04T09:43:49.183Z,100429.06
2023-02-04T09:45:51.672Z,100430.94
2023-02-04T09:47:54.141Z,100450.63
2023-02-04T09:49:55.819Z,100451.47
2023-02-04T09:51:58.904Z,100454.19
2023-02-04T09:54:18.272Z,100454.41
2023-02-04T09:56:20.481Z,100452.69
2023-02-04T09:58:29.108Z,100454.16
2023-02-04T10:00:31.524Z,100461.94
2023-02-04T10:02:35.013Z,100456.28
2023-02-04T10:04:36.990Z,100458.78
2023-02-04T10:06:39.498Z,100457.53
2023-02-04T10:08:42.474Z,100459.69
2023-02-04T10:10:46.628Z,100460.34
2023-02-04T10:12:50.090Z,100463.31
2023-02-04T10:14:51.746Z,100463.56
2023-02-04T10:17:00.006Z,100468.41
2023-02-04T10:19:08.230Z,100465.53
2023-02-04T10:21:26.647Z,100463.47
2023-02-04T10:23:28.172Z,100463.94
2023-02-04T10:25:29.779Z,100462.31
2023-02-04T10:27:31.339Z,100465.25
2023-02-04T10:29:33.094Z,100463.63
2023-02-04T10:31:39.489Z,100461.97
2023-02-04T10:33:41.291Z,100465.63
2023-02-04T10:35:48.097Z,100477.78
2023-02-04T10:38:04.595Z,100460.19
2023-02-04T10:40:40.313Z,100464.00
2023-02-04T10:42:49.502Z,100456.69
2023-02-04T10:44:51.672Z,100450.84
2023-02-04T10:47:05.155Z,100455.88
2023-02-04T10:49:23.796Z,100455.06
2023-02-04T10:51:25.582Z,100453.63
2023-02-04T10:53:45.926Z,100458.22
2023-02-04T10:55:49.326Z,100472.31
2023-02-04T10:57:52.876Z,100467.31
2023-02-04T11:00:03.078Z,100467.09
2023-02-04T11:02:39.005Z,100469.59
2023-02-04T11:04:40.552Z,100462.88
2023-02-04T11:06:43.621Z,100461.84
2023-02-04T11:08:50.123Z,100465.00
2023-02-04T11:10:57.833Z,100472.53
2023-02-04T11:13:01.072Z,100475.69
2023-02-04T11:15:06.674Z,100469.38
2023-02-04T11:17:20.224Z,100470.44
2023-02-04T11:19:39.911Z,100470.22
2023-02-04T11:21:45.346Z,100470.22
2023-02-04T11:23:48.607Z,100473.16
2023-02-04T11:26:31.627Z,100480.72
2023-02-04T11:28:59.575Z,100475.44
2023-02-04T11:31:03.709Z,100475.25
2023-02-04T11:33:21.582Z,100479.88
2023-02-04T11:35:29.341Z,100492.44
2023-02-04T11:37:38.136Z,100480.47
2023-02-04T11:39:47.409Z,100479.41
2023-02-04T11:41:49.074Z,100485.50
2023-02-04T11:43:52.036Z,100481.13
2023-02-04T11:46:15.977Z,100483.22
2023-02-04T11:48:20.216Z,100471.47
2023-02-04T11:50:26.232Z,100480.47
2023-02-04T11:52:27.868Z,100488.44
2023-02-04T11:54:29.364Z,100479.41
2023-02-04T11:56:33.934Z,100480.47
2023-02-04T11:58:42.190Z,100486.13
2023-02-04T12:00:44.688Z,100488.84
2023-02-04T12:02:54.922Z,100488.22
2023-02-04T12:05:08.409Z,100482.97
2023-02-04T12:07:12.774Z,100490.50
2023-02-04T12:09:17.123Z,100491.56
2023-02-04T12:11:27.215Z,100493.44
2023-02-04T12:13:30.937Z,100502.00
2023-02-04T12:15:37.410Z,100504.56
2023-02-04T12:17:39.212Z,100504.97
2023-02-04T12:19:40.974Z,100512.50
2023-02-04T12:21:43.368Z,100503.47
2023-02-04T12:23:45.296Z,100509.13
2023-02-04T12:25:50.100Z,100504.50
2023-02-04T12:27:53.183Z,100510.34
2023-02-04T12:29:57.474Z,100513.09
2023-02-04T12:31:59.061Z,100510.34
2023-02-04T12:34:00.807Z,100508.88
2023-02-04T12:36:02.385Z,100511.81
2023-02-04T12:38:05.080Z,100508.25
2023-02-04T12:40:08.076Z,100517.44
2023-02-04T12:42:09.858Z,100514.72
2023-02-04T12:44:11.798Z,100516.63
2023-02-04T12:46:13.420Z,100517.28
2023-02-04T12:48:15.815Z,100514.31
2023-02-04T12:50:26.200Z,100517.72
2023-02-04T12:52:29.203Z,100513.75
2023-02-04T12:54:30.901Z,100515.81
2023-02-04T12:56:32.466Z,100510.34
2023-02-04T12:58:34.028Z,100511.19
2023-02-04T13:00:35.605Z,100515.41
2023-02-04T13:02:37.394Z,100512.91
2023-02-04T13:04:41.209Z,100523.41
2023-02-04T13:06:42.781Z,100520.88
2023-02-04T13:08:44.347Z,100517.09
2023-02-04T13:10:50.406Z,100515.41
2023-02-04T13:12:51.930Z,100515.41
2023-02-04T13:14:53.670Z,100520.00
2023-02-04T13:16:55.443Z,100515.81
2023-02-04T13:18:57.587Z,100512.28
2023-02-04T13:20:59.372Z,100511.59
2023-02-04T13:23:01.039Z,100511.59
2023-02-04T13:25:04.073Z,100519.78
2023-02-04T13:27:05.878Z,100512.84
2023-02-04T13:29:07.598Z,100524.59
2023-02-04T13:31:13.356Z,100525.84
2023-02-04T13:33:15.091Z,100515.16
2023-02-04T13:35:16.774Z,100524.34
2023-02-04T13:37:18.251Z,100523.31
2023-02-04T13:39:20.002Z,100528.97
2023-02-04T13:41:21.740Z,100528.13
2023-02-04T13:43:23.748Z,100522.03
2023-02-04T13:45:25.495Z,100524.97
2023-02-04T13:47:26.964Z,100526.22
2023-02-04T13:49:42.012Z,100528.72
2023-02-04T13:51:45.756Z,100533.31
2023-02-04T13:53:47.677Z,100532.69
2023-02-04T13:55:49.262Z,100542.56
2023-02-04T13:57:50.763Z,100535.41
2023-02-04T13:59:52.446Z,100540.41
2023-02-04T14:01:54.006Z,100538.53
2023-02-04T14:03:57.088Z,100542.28
2023-02-04T14:06:05.662Z,100540.41
2023-02-04T14:08:07.102Z,100539.56
2023-02-04T14:10:09.163Z,100536.84
2023-02-04T14:12:10.879Z,100532.41
2023-02-04T14:14:12.446Z,100537.84
2023-02-04T14:16:14.017Z,100538.25
2023-02-04T14:18:18.735Z,100537.22
2023-02-04T14:20:20.369Z,100535.53
2023-02-04T14:22:24.687Z,100536.19
2023-02-04T14:24:26.413Z,100542.69
2023-02-04T14:26:28.286Z,100548.97
2023-02-04T14:28:29.901Z,100540.59
2023-02-04T14:30:32.792Z,100542.28
2023-02-04T14:32:34.658Z,100545.00
2023-02-04T14:34:36.486Z,100546.72
2023-02-04T14:36:38.194Z,100553.84
2023-02-04T14:38:39.850Z,100548.59
2023-02-04T14:40:44.324Z,100546.03
2023-02-04T14:42:50.063Z,100548.75
2023-02-04T14:44:51.741Z,100555.91
2023-02-04T14:46:53.373Z,100546.03
2023-02-04T14:48:55.067Z,100556.09
2023-02-04T14:50:56.758Z,100558.00
2023-02-04T14:52:58.504Z,100556.31
2023-02-04T14:55:00.342Z,100566.16
2023-02-04T14:57:04.582Z,100564.25
2023-02-04T14:59:06.256Z,100566.81
2023-02-04T15:01:08.218Z,100562.38
2023-02-04T15:03:09.866Z,100567.84
2023-02-04T15:05:15.238Z,100567.66
2023-02-04T15:07:16.796Z,100565.97
2023-02-04T15:09:19.300Z,100570.56
2023-02-04T15:11:20.991Z,100565.13
2023-02-04T15:13:24.897Z,100575.16
2023-02-04T15:15:26.613Z,100566.56
2023-02-04T15:17:28.254Z,100562.13
2023-02-04T15:19:33.296Z,100557.94
2023-02-04T15:21:35.223Z,100569.22
2023-02-04T15:23:36.995Z,100566.91
2023-02-04T15:25:40.142Z,100561.66
2023-02-04T15:27:41.917Z,100568.34
2023-02-04T15:29:43.459Z,100565.81
2023-02-04T15:31:45.260Z,100574.38
2023-02-04T15:33:49.319Z,100573.09
2023-02-04T15:35:52.162Z,100568.03
2023-02-04T15:37:53.725Z,100570.31
2023-02-04T15:39:57.032Z,100585.38
2023-02-04T15:41:58.936Z,100576.72
2023-02-04T15:44:00.543Z,100585.28
2023-02-04T15:46:02.202Z,100581.06
2023-02-04T15:48:03.831Z,100589.66
2023-02-04T15:50:08.648Z,100589.19
2023-02-04T15:52:19.456Z,100593.16
2023-02-04T15:54:28.016Z,100596.47
2023-02-04T15:56:29.778Z,100599.56
2023-02-04T15:58:34.114Z,100602.66
2023-02-04T16:00:36.149Z,100602.22
2023-02-04T16:02:37.874Z,100597.16
2023-02-04T16:04:41.448Z,100599.25
2023-02-04T16:06:53.408Z,100602.53
2023-02-04T16:08:59.088Z,100603.94
2023-02-04T16:11:02.020Z,100607.06
2023-02-04T16:13:03.506Z,100607.44
2023-02-04T16:15:05.672Z,100616.00
2023-02-04T16:17:08.340Z,100611.97
2023-02-04T16:19:09.883Z,100612.34
2023-02-04T16:21:11.737Z,100612.75
2023-02-04T16:23:13.120Z,100613.13
2023-02-04T16:25:14.933Z,100612.66
2023-02-04T16:27:17.272Z,100624.75
2023-02-04T16:29:21.571Z,100619.69
2023-02-04T16:31:23.375Z,100626.53
2023-02-04T16:33:26.793Z,100635.09
2023-02-04T16:35:28.615Z,100634.59
2023-02-04T16:37:31.120Z,100637.72
2023-02-04T16:39:33.060Z,100643.34
2023-02-04T16:41:34.644Z,100637.44
2023-02-04T16:43:37.649Z,100639.69
2023-02-04T16:45:40.816Z,100641.94
2023-02-04T16:47:42.331Z,100638.75
2023-02-04T16:49:48.189Z,100644.75
2023-02-04T16:51:49.814Z,100644.28
2023-02-04T16:53:51.402Z,100643.16
2023-02-04T16:55:53.071Z,100653.38
2023-02-04T16:57:54.616Z,100650.00
2023-02-04T16:59:56.750Z,100647.84
2023-02-04T17:02:00.836Z,100655.53
2023-02-04T17:04:03.157Z,100646.06
2023-02-04T17:06:04.965Z,100645.78
2023-02-04T17:08:07.326Z,100647.16
2023-02-04T17:10:09.438Z,100650.41
2023-02-04T17:12:11.231Z,100651.81
2023-02-04T17:14:15.851Z,100657.78
2023-02-04T17:16:19.723Z,100654.59
2023-02-04T17:18:21.337Z,100653.44
2023-02-04T17:20:24.513Z,100659.44
2023-02-04T17:22:26.900Z,100656.22
2023-02-04T17:24:29.249Z,100659.50
2023-02-04T17:26:36.946Z,100657.16
2023-02-04T17:28:38.656Z,100648.91
2023-02-04T17:30:40.379Z,100654.69
2023-02-04T17:32:42.598Z,100654.19
2023-02-04T17:34:45.320Z,100654.59
2023-02-04T17:36:47.044Z,100651.53
2023-02-04T17:38:48.565Z,100653.78
2023-02-04T17:40:50.369Z,100648.91
2023-02-04T17:42:51.988Z,100653.19
2023-02-04T17:44:54.336Z,100646.25
2023-02-04T17:46:57.371Z,100644.06
2023-02-04T17:48:59.205Z,100647.31
2023-02-04T17:51:00.908Z,100646.00
2023-02-04T17:53:04.140Z,100651.97
2023-02-04T17:55:27.598Z,100657.22
2023-02-04T17:57:29.239Z,100645.25
2023-02-04T17:59:31.717Z,100646.47
2023-02-04T18:01:33.937Z,100648.84
2023-02-04T18:03:36.180Z,100650.22
2023-02-04T18:05:44.657Z,100649.06
2023-02-04T18:07:56.282Z,100654.16
2023-02-04T18:10:17.903Z,100654.88
2023-02-04T18:12:20.187Z,100643.72
2023-02-04T18:14:30.339Z,100647.78
2023-02-04T18:16:34.481Z,100654.78
2023-02-04T18:18:38.387Z,100649.03
2023-02-04T18:20:40.345Z,100651.44
2023-02-04T18:22:41.972Z,100642.78
2023-02-04T18:24:47.641Z,100639.75
2023-02-04T18:26:52.568Z,100643.84
2023-02-04T18:28:54.218Z,100639.78
2023-02-04T18:31:00.431Z,100640.50
2023-02-04T18:33:06.901Z,100643.56
2023-02-04T18:35:31.679Z,100647.78
2023-02-04T18:37:46.762Z,100647.47
2023-02-04T18:39:48.570Z,100641.53
2023-02-04T18:41:51.991Z,100648.16
2023-02-04T18:44:02.267Z,100645.97
2023-02-04T18:46:20.277Z,100638.34
2023-02-04T18:48:22.739Z,100648.66
2023-02-04T18:50:29.846Z,100644.44
2023-02-04T18:52:37.583Z,100648.53
2023-02-04T18:54:40.270Z,100643.44
2023-02-04T18:56:42.825Z,100652.75
2023-02-04T18:58:49.288Z,100653.94
2023-02-04T19:01:00.342Z,100656.97
2023-02-04T19:03:37.249Z,100655.47
2023-02-04T19:05:48.995Z,100654.28
2023-02-04T19:07:52.961Z,100657.16
2023-02-04T19:09:59.001Z,100658.34
2023-02-04T19:12:19.657Z,100666.94
2023-02-04T19:14:38.966Z,100680.63
2023-02-04T19:16:42.216Z,100684.69
2023-02-04T19:18:44.335Z,100680.47
2023-02-04T19:20:45.981Z,100678.94
2023-02-04T19:22:51.891Z,100678.25
2023-02-04T19:25:02.159Z,100678.59
2023-02-04T19:27:29.632Z,100671.84
2023-02-04T19:29:37.953Z,100679.25
2023-02-04T19:31:42.905Z,100680.63
2023-02-04T19:33:47.999Z,100677.22
2023-02-04T19:35:50.148Z,100684.69
2023-02-04T19:38:30.387Z,100686.00
2023-02-04T19:40:34.965Z,100685.50
2023-02-04T19:42:37.852Z,100690.22
2023-02-04T19:44:43.666Z,100691.25
2023-02-04T19:46:45.429Z,100691.38
2023-02-04T19:48:47.397Z,100695.13
2023-02-04T19:50:54.239Z,100698.16
2023-02-04T19:53:09.510Z,100694.09
2023-02-04T19:55:17.221Z,100693.56
2023-02-04T19:57:25.511Z,100697.44
2023-02-04T19:59:36.305Z,100699.63
2023-02-04T20:01:41.067Z,100699.13
2023-02-04T20:03:49.445Z,100706.69
2023-02-04T20:05:51.601Z,100699.75
2023-02-04T20:07:53.091Z,100696.53
2023-02-04T20:10:00.806Z,100708.50
2023-02-04T20:12:11.983Z,100707.16
2023-02-04T20:14:16.392Z,100707.47
2023-02-04T20:16:41.126Z,100714.22
2023-02-04T20:18:45.210Z,100715.53
2023-02-04T20:20:47.218Z,100717.56
2023-02-04T20:22:53.505Z,100717.88
2023-02-04T20:24:58.895Z,100723.63
2023-02-04T20:27:02.413Z,100729.34
2023-02-04T20:29:13.557Z,100726.13
2023-02-04T20:31:35.845Z,100729.97
2023-02-04T20:34:12.978Z,100723.53
2023-02-04T20:36:26.942Z,100737.34
2023-02-04T20:38:32.711Z,100735.81
2023-02-04T20:40:42.172Z,100749.63
2023-02-04T20:42:46.184Z,100740.84
2023-02-04T20:44:49.194Z,100758.22
2023-02-04T20:46:50.897Z,100757.72
2023-02-04T20:48:52.560Z,100760.72
2023-02-04T20:50:55.876Z,100751.06
2023-02-04T20:53:06.942Z,100749.69
2023-02-04T20:55:27.910Z,100758.81
2023-02-04T20:57:41.664Z,100756.41
2023-02-04T20:59:44.891Z,100762.97
2023-02-04T21:01:49.765Z,100751.50
2023-02-04T21:03:51.862Z,100746.41
2023-02-04T21:05:54.672Z,100749.28
2023-02-04T21:07:58.036Z,100745.03
2023-02-04T21:10:04.285Z,100751.59
2023-02-04T21:12:07.086Z,100748.19
2023-02-04T21:14:09.291Z,100744.78
2023-02-04T21:16:12.001Z,100749.50
2023-02-04T21:18:13.876Z,100742.56
2023-02-04T21:20:15.701Z,100745.44
2023-02-04T21:22:17.520Z,100748.28
2023-02-04T21:24:21.193Z,100755.84
2023-02-04T21:26:22.746Z,100748.06
2023-02-04T21:28:24.353Z,100749.22
2023-02-04T21:30:30.097Z,100759.16
2023-02-04T21:32:31.982Z,100751.38
2023-02-04T21:34:33.810Z,100756.06
2023-02-04T21:36:35.369Z,100752.69
2023-02-04T21:38:36.988Z,100747.59
2023-02-04T21:40:39.255Z,100744.22
2023-02-04T21:42:41.035Z,100748.06
2023-02-04T21:44:42.703Z,100745.66
2023-02-04T21:46:44.475Z,100749.38
2023-02-04T21:48:46.526Z,100740.59
2023-02-04T21:50:48.124Z,100748.84
2023-02-04T21:52:49.962Z,100748.13
2023-02-04T21:54:51.477Z,100749.28
2023-02-04T21:56:52.983Z,100751.44
2023-02-04T21:58:54.465Z,100751.59
2023-02-04T22:00:56.063Z,100749.06
2023-02-04T22:02:58.138Z,100754.75
2023-02-04T22:05:02.516Z,100757.75
2023-02-04T22:07:04.100Z,100756.19
2023-02-04T22:09:05.981Z,100761.75
2023-02-04T22:11:07.818Z,100764.63
2023-02-04T22:13:09.647Z,100765.78
2023-02-04T22:15:17.837Z,100762.50
2023-02-04T22:17:19.727Z,100757.28
2023-02-04T22:19:21.489Z,100753.06
2023-02-04T22:21:23.477Z,100758.56
2023-02-04T22:23:28.174Z,100755.19
2023-02-04T22:25:29.868Z,100752.78
2023-02-04T22:27:31.400Z,100750.25
2023-02-04T22:29:33.691Z,100754.78
2023-02-04T22:31:35.577Z,100756.81
2023-02-04T22:33:37.355Z,100751.69
2023-02-04T22:35:41.758Z,100760.78
2023-02-04T22:37:46.639Z,100759.22
2023-02-04T22:39:48.254Z,100760.25
2023-02-04T22:41:50.139Z,100757.00
2023-02-04T22:43:51.952Z,100759.00
2023-02-04T22:45:55.722Z,100758.31
2023-02-04T22:47:59.819Z,100765.69
2023-02-04T22:50:01.483Z,100769.38
2023-02-04T22:52:03.885Z,100757.75
2023-02-04T22:54:05.492Z,100769.66
2023-02-04T22:56:07.259Z,100762.72
2023-02-04T22:58:09.028Z,100762.03
2023-02-04T23:00:11.532Z,100757.63
2023-02-04T23:02:16.109Z,100762.50
2023-02-04T23:04:17.640Z,100758.94
2023-02-04T23:06:27.899Z,100767.19
2023-02-04T23:08:29.444Z,100761.22
2023-02-04T23:10:31.352Z,100758.69
2023-02-04T23:12:35.804Z,100754.47
2023-02-04T23:14:40.288Z,100757.28
2023-02-04T23:16:43.058Z,100759.13
2023-02-04T23:18:44.855Z,100748.50
2023-02-04T23:20:46.662Z,100750.50
2023-02-04T23:22:48.193Z,100755.91
2023-02-04T23:24:49.922Z,100753.34
2023-02-04T23:26:51.626Z,100746.25
2023-02-04T23:28:58.070Z,100749.09
2023-02-04T23:30:59.870Z,100750.09
2023-02-04T23:33:01.443Z,100741.34
2023-02-04T23:35:06.556Z,100745.00
2023-02-04T23:37:08.004Z,100744.31
2023-02-04T23:39:09.646Z,100746.31
2023-02-04T23:41:11.407Z,100748.28
2023-02-04T23:43:13.021Z,100749.28
2023-02-04T23:45:14.649Z,100754.97
2023-02-04T23:47:16.159Z,100755.94